sensor_id;sensor_type;location;lat;lon;timestamp;temperature;humidity
68439;SHT31;55421;51.600;5.718;2023-04-15T00:01:18;9.22;65.81
68439;SHT31;55421;51.600;5.718;2023-04-15T00:03:44;9.21;65.90
68439;SHT31;55421;51.600;5.718;2023-04-15T00:06:12;9.18;65.92
68439;SHT31;55421;51.600;5.718;2023-04-15T00:08:39;9.13;66.00
68439;SHT31;55421;51.600;5.718;2023-04-15T00:11:06;9.09;66.09
68439;SHT31;55421;51.600;5.718;2023-04-15T00:13:33;9.06;66.12
68439;SHT31;55421;51.600;5.718;2023-04-15T00:16:00;9.05;66.20
68439;SHT31;55421;51.600;5.718;2023-04-15T00:18:27;9.05;66.32
68439;SHT31;55421;51.600;5.718;2023-04-15T00:20:54;9.05;66.40
68439;SHT31;55421;51.600;5.718;2023-04-15T00:23:21;9.05;66.39
68439;SHT31;55421;51.600;5.718;2023-04-15T00:25:47;9.04;66.41
68439;SHT31;55421;51.600;5.718;2023-04-15T00:28:14;9.03;66.40
68439;SHT31;55421;51.600;5.718;2023-04-15T00:30:42;8.99;66.34
68439;SHT31;55421;51.600;5.718;2023-04-15T00:33:09;8.95;66.20
68439;SHT31;55421;51.600;5.718;2023-04-15T00:35:36;8.92;66.20
68439;SHT31;55421;51.600;5.718;2023-04-15T00:38:02;8.88;66.26
68439;SHT31;55421;51.600;5.718;2023-04-15T00:40:31;8.84;66.34
68439;SHT31;55421;51.600;5.718;2023-04-15T00:42:58;8.84;66.41
68439;SHT31;55421;51.600;5.718;2023-04-15T00:45:25;8.83;66.49
68439;SHT31;55421;51.600;5.718;2023-04-15T00:47:53;8.83;66.48
68439;SHT31;55421;51.600;5.718;2023-04-15T00:50:21;8.83;66.42
68439;SHT31;55421;51.600;5.718;2023-04-15T00:52:48;8.83;66.32
68439;SHT31;55421;51.600;5.718;2023-04-15T00:55:14;8.82;66.30
68439;SHT31;55421;51.600;5.718;2023-04-15T00:57:41;8.81;66.41
68439;SHT31;55421;51.600;5.718;2023-04-15T01:00:08;8.80;66.47
68439;SHT31;55421;51.600;5.718;2023-04-15T01:02:36;8.77;66.50
68439;SHT31;55421;51.600;5.718;2023-04-15T01:05:04;8.74;66.56
68439;SHT31;55421;51.600;5.718;2023-04-15T01:07:31;8.72;66.61
68439;SHT31;55421;51.600;5.718;2023-04-15T01:09:57;8.70;66.72
68439;SHT31;55421;51.600;5.718;2023-04-15T01:12:25;8.67;66.81
68439;SHT31;55421;51.600;5.718;2023-04-15T01:14:54;8.66;66.93
68439;SHT31;55421;51.600;5.718;2023-04-15T01:17:22;8.65;67.00
68439;SHT31;55421;51.600;5.718;2023-04-15T01:19:50;8.63;67.00
68439;SHT31;55421;51.600;5.718;2023-04-15T01:22:17;8.61;67.11
68439;SHT31;55421;51.600;5.718;2023-04-15T01:27:35;8.52;67.32
68439;SHT31;55421;51.600;5.718;2023-04-15T01:30:06;8.48;67.46
68439;SHT31;55421;51.600;5.718;2023-04-15T01:32:33;8.44;67.55
68439;SHT31;55421;51.600;5.718;2023-04-15T01:35:00;8.41;67.72
68439;SHT31;55421;51.600;5.718;2023-04-15T01:37:27;8.40;67.82
68439;SHT31;55421;51.600;5.718;2023-04-15T01:39:54;8.40;67.89
68439;SHT31;55421;51.600;5.718;2023-04-15T01:42:22;8.41;67.90
68439;SHT31;55421;51.600;5.718;2023-04-15T01:44:49;8.38;67.84
68439;SHT31;55421;51.600;5.718;2023-04-15T01:47:16;8.34;67.73
68439;SHT31;55421;51.600;5.718;2023-04-15T01:49:42;8.29;67.74
68439;SHT31;55421;51.600;5.718;2023-04-15T01:52:09;8.23;67.77
68439;SHT31;55421;51.600;5.718;2023-04-15T01:54:35;8.15;67.80
68439;SHT31;55421;51.600;5.718;2023-04-15T01:57:02;8.08;67.87
68439;SHT31;55421;51.600;5.718;2023-04-15T01:59:29;8.02;68.11
68439;SHT31;55421;51.600;5.718;2023-04-15T02:01:58;8.01;68.41
68439;SHT31;55421;51.600;5.718;2023-04-15T02:04:25;8.01;68.68
68439;SHT31;55421;51.600;5.718;2023-04-15T02:06:53;8.01;68.85
68439;SHT31;55421;51.600;5.718;2023-04-15T02:09:19;8.01;69.03
68439;SHT31;55421;51.600;5.718;2023-04-15T02:11:46;8.00;69.17
68439;SHT31;55421;51.600;5.718;2023-04-15T02:14:12;8.00;69.33
68439;SHT31;55421;51.600;5.718;2023-04-15T02:16:39;7.99;69.47
68439;SHT31;55421;51.600;5.718;2023-04-15T02:19:06;7.99;69.59
68439;SHT31;55421;51.600;5.718;2023-04-15T02:21:32;7.99;69.66
68439;SHT31;55421;51.600;5.718;2023-04-15T02:24:00;7.99;69.71
68439;SHT31;55421;51.600;5.718;2023-04-15T02:26:27;7.98;69.81
68439;SHT31;55421;51.600;5.718;2023-04-15T02:28:57;7.97;69.88
68439;SHT31;55421;51.600;5.718;2023-04-15T02:31:24;7.94;69.90
68439;SHT31;55421;51.600;5.718;2023-04-15T02:33:51;7.90;69.91
68439;SHT31;55421;51.600;5.718;2023-04-15T02:36:17;7.85;69.94
68439;SHT31;55421;51.600;5.718;2023-04-15T02:38:46;7.81;70.06
68439;SHT31;55421;51.600;5.718;2023-04-15T02:41:12;7.79;70.18
68439;SHT31;55421;51.600;5.718;2023-04-15T02:43:39;7.80;70.31
68439;SHT31;55421;51.600;5.718;2023-04-15T02:46:06;7.78;70.36
68439;SHT31;55421;51.600;5.718;2023-04-15T02:48:32;7.76;70.40
68439;SHT31;55421;51.600;5.718;2023-04-15T02:51:15;7.75;70.42
68439;SHT31;55421;51.600;5.718;2023-04-15T02:53:48;7.71;70.54
68439;SHT31;55421;51.600;5.718;2023-04-15T02:56:15;7.68;70.65
68439;SHT31;55421;51.600;5.718;2023-04-15T02:58:42;7.64;70.80
68439;SHT31;55421;51.600;5.718;2023-04-15T03:01:10;7.62;70.90
68439;SHT31;55421;51.600;5.718;2023-04-15T03:03:37;7.59;70.99
68439;SHT31;55421;51.600;5.718;2023-04-15T03:06:04;7.56;71.13
68439;SHT31;55421;51.600;5.718;2023-04-15T03:08:31;7.55;71.22
68439;SHT31;55421;51.600;5.718;2023-04-15T03:10:57;7.53;71.35
68439;SHT31;55421;51.600;5.718;2023-04-15T03:13:25;7.52;71.48
68439;SHT31;55421;51.600;5.718;2023-04-15T03:15:52;7.49;71.54
68439;SHT31;55421;51.600;5.718;2023-04-15T03:18:18;7.48;71.60
68439;SHT31;55421;51.600;5.718;2023-04-15T03:20:45;7.46;71.68
68439;SHT31;55421;51.600;5.718;2023-04-15T03:23:11;7.44;71.76
68439;SHT31;55421;51.600;5.718;2023-04-15T03:25:38;7.44;71.86
68439;SHT31;55421;51.600;5.718;2023-04-15T03:28:04;7.43;71.92
68439;SHT31;55421;51.600;5.718;2023-04-15T03:30:31;7.43;72.03
68439;SHT31;55421;51.600;5.718;2023-04-15T03:32:57;7.42;72.10
68439;SHT31;55421;51.600;5.718;2023-04-15T03:35:24;7.41;72.17
68439;SHT31;55421;51.600;5.718;2023-04-15T03:37:51;7.40;72.25
68439;SHT31;55421;51.600;5.718;2023-04-15T03:40:17;7.39;72.33
68439;SHT31;55421;51.600;5.718;2023-04-15T03:42:44;7.38;72.46
68439;SHT31;55421;51.600;5.718;2023-04-15T03:45:11;7.36;72.57
68439;SHT31;55421;51.600;5.718;2023-04-15T03:47:37;7.35;72.70
68439;SHT31;55421;51.600;5.718;2023-04-15T03:50:04;7.34;72.80
68439;SHT31;55421;51.600;5.718;2023-04-15T03:52:32;7.33;72.89
68439;SHT31;55421;51.600;5.718;2023-04-15T03:54:58;7.31;73.01
68439;SHT31;55421;51.600;5.718;2023-04-15T03:57:25;7.29;73.10
68439;SHT31;55421;51.600;5.718;2023-04-15T03:59:51;7.27;73.22
68439;SHT31;55421;51.600;5.718;2023-04-15T04:02:20;7.25;73.31
68439;SHT31;55421;51.600;5.718;2023-04-15T04:04:48;7.25;73.41
68439;SHT31;55421;51.600;5.718;2023-04-15T04:07:15;7.23;73.52
68439;SHT31;55421;51.600;5.718;2023-04-15T04:09:42;7.22;73.60
68439;SHT31;55421;51.600;5.718;2023-04-15T04:12:09;7.23;73.68
68439;SHT31;55421;51.600;5.718;2023-04-15T04:14:36;7.23;73.73
68439;SHT31;55421;51.600;5.718;2023-04-15T04:17:02;7.23;73.80
68439;SHT31;55421;51.600;5.718;2023-04-15T04:19:29;7.22;73.86
68439;SHT31;55421;51.600;5.718;2023-04-15T04:21:55;7.22;73.90
68439;SHT31;55421;51.600;5.718;2023-04-15T04:24:22;7.20;73.90
68439;SHT31;55421;51.600;5.718;2023-04-15T04:26:48;7.17;73.98
68439;SHT31;55421;51.600;5.718;2023-04-15T04:29:15;7.14;73.99
68439;SHT31;55421;51.600;5.718;2023-04-15T04:31:42;7.13;74.10
68439;SHT31;55421;51.600;5.718;2023-04-15T04:34:08;7.12;74.20
68439;SHT31;55421;51.600;5.718;2023-04-15T04:36:34;7.11;74.28
68439;SHT31;55421;51.600;5.718;2023-04-15T04:39:01;7.11;74.39
68439;SHT31;55421;51.600;5.718;2023-04-15T04:41:29;7.11;74.45
68439;SHT31;55421;51.600;5.718;2023-04-15T04:43:55;7.10;74.50
68439;SHT31;55421;51.600;5.718;2023-04-15T04:46:22;7.08;74.58
68439;SHT31;55421;51.600;5.718;2023-04-15T04:48:49;7.07;74.64
68439;SHT31;55421;51.600;5.718;2023-04-15T04:51:15;7.06;74.74
68439;SHT31;55421;51.600;5.718;2023-04-15T04:53:43;7.06;74.80
68439;SHT31;55421;51.600;5.718;2023-04-15T04:56:09;7.06;74.89
68439;SHT31;55421;51.600;5.718;2023-04-15T04:58:36;7.07;74.94
68439;SHT31;55421;51.600;5.718;2023-04-15T05:01:03;7.08;75.00
68439;SHT31;55421;51.600;5.718;2023-04-15T05:03:29;7.09;75.01
68439;SHT31;55421;51.600;5.718;2023-04-15T05:05:56;7.10;75.02
68439;SHT31;55421;51.600;5.718;2023-04-15T05:08:22;7.11;75.05
68439;SHT31;55421;51.600;5.718;2023-04-15T05:10:49;7.12;75.07
68439;SHT31;55421;51.600;5.718;2023-04-15T05:13:15;7.13;75.06
68439;SHT31;55421;51.600;5.718;2023-04-15T05:15:42;7.14;75.01
68439;SHT31;55421;51.600;5.718;2023-04-15T05:18:08;7.14;75.00
68439;SHT31;55421;51.600;5.718;2023-04-15T05:20:35;7.14;75.06
68439;SHT31;55421;51.600;5.718;2023-04-15T05:23:01;7.17;75.10
68439;SHT31;55421;51.600;5.718;2023-04-15T05:25:28;7.18;75.13
68439;SHT31;55421;51.600;5.718;2023-04-15T05:27:54;7.22;75.12
68439;SHT31;55421;51.600;5.718;2023-04-15T05:30:21;7.27;75.16
68439;SHT31;55421;51.600;5.718;2023-04-15T05:32:47;7.33;75.20
68439;SHT31;55421;51.600;5.718;2023-04-15T05:35:14;7.39;75.17
68439;SHT31;55421;51.600;5.718;2023-04-15T05:37:41;7.45;75.11
68439;SHT31;55421;51.600;5.718;2023-04-15T05:40:08;7.50;75.12
68439;SHT31;55421;51.600;5.718;2023-04-15T05:42:35;7.55;75.11
68439;SHT31;55421;51.600;5.718;2023-04-15T05:45:02;7.61;75.10
68439;SHT31;55421;51.600;5.718;2023-04-15T05:47:34;7.67;75.00
68439;SHT31;55421;51.600;5.718;2023-04-15T05:50:02;7.73;75.00
68439;SHT31;55421;51.600;5.718;2023-04-15T05:52:30;7.77;74.97
68439;SHT31;55421;51.600;5.718;2023-04-15T05:54:57;7.82;74.92
68439;SHT31;55421;51.600;5.718;2023-04-15T05:57:24;7.86;74.91
68439;SHT31;55421;51.600;5.718;2023-04-15T05:59:50;7.91;74.90
68439;SHT31;55421;51.600;5.718;2023-04-15T06:02:17;7.97;74.90
68439;SHT31;55421;51.600;5.718;2023-04-15T06:04:44;8.02;74.81
68439;SHT31;55421;51.600;5.718;2023-04-15T06:07:10;8.06;74.71
68439;SHT31;55421;51.600;5.718;2023-04-15T06:09:37;8.09;74.60
68439;SHT31;55421;51.600;5.718;2023-04-15T06:12:03;8.11;74.58
68439;SHT31;55421;51.600;5.718;2023-04-15T06:14:31;8.11;74.59
68439;SHT31;55421;51.600;5.718;2023-04-15T06:16:58;8.13;74.56
68439;SHT31;55421;51.600;5.718;2023-04-15T06:19:25;8.15;74.57
68439;SHT31;55421;51.600;5.718;2023-04-15T06:21:51;8.15;74.50
68439;SHT31;55421;51.600;5.718;2023-04-15T06:24:18;8.16;74.50
68439;SHT31;55421;51.600;5.718;2023-04-15T06:26:44;8.17;74.54
68439;SHT31;55421;51.600;5.718;2023-04-15T06:29:10;8.19;74.57
68439;SHT31;55421;51.600;5.718;2023-04-15T06:31:37;8.21;74.60
68439;SHT31;55421;51.600;5.718;2023-04-15T06:34:03;8.22;74.60
68439;SHT31;55421;51.600;5.718;2023-04-15T06:36:30;8.23;74.67
68439;SHT31;55421;51.600;5.718;2023-04-15T06:38:57;8.26;74.70
68439;SHT31;55421;51.600;5.718;2023-04-15T06:41:23;8.30;74.70
68439;SHT31;55421;51.600;5.718;2023-04-15T06:43:50;8.32;74.73
68439;SHT31;55421;51.600;5.718;2023-04-15T06:46:17;8.38;74.79
68439;SHT31;55421;51.600;5.718;2023-04-15T06:48:43;8.44;74.80
68439;SHT31;55421;51.600;5.718;2023-04-15T06:51:10;8.50;74.74
68439;SHT31;55421;51.600;5.718;2023-04-15T06:53:37;8.58;74.69
68439;SHT31;55421;51.600;5.718;2023-04-15T06:56:09;8.65;74.65
68439;SHT31;55421;51.600;5.718;2023-04-15T06:58:36;8.76;74.61
68439;SHT31;55421;51.600;5.718;2023-04-15T07:01:02;8.85;74.60
68439;SHT31;55421;51.600;5.718;2023-04-15T07:03:29;8.93;74.50
68439;SHT31;55421;51.600;5.718;2023-04-15T07:05:56;9.02;74.51
68439;SHT31;55421;51.600;5.718;2023-04-15T07:08:22;9.14;74.50
68439;SHT31;55421;51.600;5.718;2023-04-15T07:10:49;9.23;74.41
68439;SHT31;55421;51.600;5.718;2023-04-15T07:13:18;9.32;74.30
68439;SHT31;55421;51.600;5.718;2023-04-15T07:15:44;9.37;74.22
68439;SHT31;55421;51.600;5.718;2023-04-15T07:18:11;9.43;74.09
68439;SHT31;55421;51.600;5.718;2023-04-15T07:20:38;9.49;73.96
68439;SHT31;55421;51.600;5.718;2023-04-15T07:23:05;9.55;73.91
68439;SHT31;55421;51.600;5.718;2023-04-15T07:25:32;9.59;73.83
68439;SHT31;55421;51.600;5.718;2023-04-15T07:27:58;9.61;73.67
68439;SHT31;55421;51.600;5.718;2023-04-15T07:30:25;9.66;73.75
68439;SHT31;55421;51.600;5.718;2023-04-15T07:32:51;9.73;73.75
68439;SHT31;55421;51.600;5.718;2023-04-15T07:35:18;9.80;73.70
68439;SHT31;55421;51.600;5.718;2023-04-15T07:37:46;9.88;73.61
68439;SHT31;55421;51.600;5.718;2023-04-15T07:40:13;9.96;73.37
68439;SHT31;55421;51.600;5.718;2023-04-15T07:42:41;10.05;73.29
68439;SHT31;55421;51.600;5.718;2023-04-15T07:45:08;10.14;73.16
68439;SHT31;55421;51.600;5.718;2023-04-15T07:47:35;10.22;73.06
68439;SHT31;55421;51.600;5.718;2023-04-15T07:50:02;10.29;72.99
68439;SHT31;55421;51.600;5.718;2023-04-15T07:52:29;10.34;72.88
68439;SHT31;55421;51.600;5.718;2023-04-15T07:54:55;10.39;72.87
68439;SHT31;55421;51.600;5.718;2023-04-15T07:57:22;10.46;72.86
68439;SHT31;55421;51.600;5.718;2023-04-15T07:59:48;10.54;72.60
68439;SHT31;55421;51.600;5.718;2023-04-15T08:02:15;10.61;72.29
68439;SHT31;55421;51.600;5.718;2023-04-15T08:04:41;10.70;72.27
68439;SHT31;55421;51.600;5.718;2023-04-15T08:07:08;10.77;72.12
68439;SHT31;55421;51.600;5.718;2023-04-15T08:09:34;10.84;72.00
68439;SHT31;55421;51.600;5.718;2023-04-15T08:12:01;10.90;71.66
68439;SHT31;55421;51.600;5.718;2023-04-15T08:14:28;10.94;71.14
68439;SHT31;55421;51.600;5.718;2023-04-15T08:16:55;10.94;70.84
68439;SHT31;55421;51.600;5.718;2023-04-15T08:19:21;10.94;70.62
68439;SHT31;55421;51.600;5.718;2023-04-15T08:21:48;10.95;70.53
68439;SHT31;55421;51.600;5.718;2023-04-15T08:24:14;10.95;70.11
68439;SHT31;55421;51.600;5.718;2023-04-15T08:26:41;10.96;70.02
68439;SHT31;55421;51.600;5.718;2023-04-15T08:29:07;10.97;69.93
68439;SHT31;55421;51.600;5.718;2023-04-15T08:31:34;10.99;69.74
68439;SHT31;55421;51.600;5.718;2023-04-15T08:34:02;11.00;69.38
68439;SHT31;55421;51.600;5.718;2023-04-15T08:36:29;11.00;69.25
68439;SHT31;55421;51.600;5.718;2023-04-15T08:38:57;11.02;69.21
68439;SHT31;55421;51.600;5.718;2023-04-15T08:41:24;11.05;69.08
68439;SHT31;55421;51.600;5.718;2023-04-15T08:44:00;11.09;68.84
68439;SHT31;55421;51.600;5.718;2023-04-15T08:46:32;11.18;68.90
68439;SHT31;55421;51.600;5.718;2023-04-15T08:49:02;11.26;68.83
68439;SHT31;55421;51.600;5.718;2023-04-15T08:51:30;11.34;68.70
68439;SHT31;55421;51.600;5.718;2023-04-15T08:53:57;11.47;68.85
68439;SHT31;55421;51.600;5.718;2023-04-15T08:56:25;11.61;68.39
68439;SHT31;55421;51.600;5.718;2023-04-15T08:58:53;11.75;68.00
68439;SHT31;55421;51.600;5.718;2023-04-15T09:01:20;11.84;67.11
68439;SHT31;55421;51.600;5.718;2023-04-15T09:03:48;11.96;67.19
68439;SHT31;55421;51.600;5.718;2023-04-15T09:06:16;12.10;66.53
68439;SHT31;55421;51.600;5.718;2023-04-15T09:08:43;12.20;65.75
68439;SHT31;55421;51.600;5.718;2023-04-15T09:11:10;12.24;64.93
68439;SHT31;55421;51.600;5.718;2023-04-15T09:13:37;12.25;64.68
68439;SHT31;55421;51.600;5.718;2023-04-15T09:16:05;12.27;64.72
68439;SHT31;55421;51.600;5.718;2023-04-15T09:18:33;12.29;64.72
68439;SHT31;55421;51.600;5.718;2023-04-15T09:21:12;12.33;64.79
68439;SHT31;55421;51.600;5.718;2023-04-15T09:23:52;12.36;64.50
68439;SHT31;55421;51.600;5.718;2023-04-15T09:26:31;12.37;63.98
68439;SHT31;55421;51.600;5.718;2023-04-15T09:29:05;12.36;63.86
68439;SHT31;55421;51.600;5.718;2023-04-15T09:31:34;12.39;64.01
68439;SHT31;55421;51.600;5.718;2023-04-15T09:34:02;12.41;63.71
68439;SHT31;55421;51.600;5.718;2023-04-15T09:36:28;12.36;62.96
68439;SHT31;55421;51.600;5.718;2023-04-15T09:39:01;12.37;63.31
68439;SHT31;55421;51.600;5.718;2023-04-15T09:41:28;12.43;63.36
68439;SHT31;55421;51.600;5.718;2023-04-15T09:43:54;12.49;63.21
68439;SHT31;55421;51.600;5.718;2023-04-15T09:46:39;12.52;62.90
68439;SHT31;55421;51.600;5.718;2023-04-15T09:49:08;12.52;62.57
68439;SHT31;55421;51.600;5.718;2023-04-15T09:51:36;12.53;62.87
68439;SHT31;55421;51.600;5.718;2023-04-15T09:54:04;12.59;62.88
68439;SHT31;55421;51.600;5.718;2023-04-15T09:56:33;12.66;63.00
68439;SHT31;55421;51.600;5.718;2023-04-15T09:59:09;12.73;62.62
68439;SHT31;55421;51.600;5.718;2023-04-15T10:01:36;12.79;62.33
68439;SHT31;55421;51.600;5.718;2023-04-15T10:04:06;12.86;60.97
68439;SHT31;55421;51.600;5.718;2023-04-15T10:06:37;12.89;60.40
68439;SHT31;55421;51.600;5.718;2023-04-15T10:09:10;12.92;60.54
68439;SHT31;55421;51.600;5.718;2023-04-15T10:11:36;12.98;60.65
68439;SHT31;55421;51.600;5.718;2023-04-15T10:14:03;13.09;60.82
68439;SHT31;55421;51.600;5.718;2023-04-15T10:16:34;13.19;60.67
68439;SHT31;55421;51.600;5.718;2023-04-15T10:19:07;13.29;60.41
68439;SHT31;55421;51.600;5.718;2023-04-15T10:21:36;13.37;60.39
68439;SHT31;55421;51.600;5.718;2023-04-15T10:24:02;13.45;60.25
68439;SHT31;55421;51.600;5.718;2023-04-15T10:26:31;13.50;58.94
68439;SHT31;55421;51.600;5.718;2023-04-15T10:28:58;13.51;58.23
68439;SHT31;55421;51.600;5.718;2023-04-15T10:31:26;13.53;58.26
68439;SHT31;55421;51.600;5.718;2023-04-15T10:33:53;13.55;58.20
68439;SHT31;55421;51.600;5.718;2023-04-15T10:36:21;13.57;58.11
68439;SHT31;55421;51.600;5.718;2023-04-15T10:38:48;13.65;58.75
68439;SHT31;55421;51.600;5.718;2023-04-15T10:41:18;13.77;59.19
68439;SHT31;55421;51.600;5.718;2023-04-15T10:43:47;13.88;58.76
68439;SHT31;55421;51.600;5.718;2023-04-15T10:46:23;13.95;58.43
68439;SHT31;55421;51.600;5.718;2023-04-15T10:49:06;14.00;58.27
68439;SHT31;55421;51.600;5.718;2023-04-15T10:51:41;14.02;58.20
68439;SHT31;55421;51.600;5.718;2023-04-15T10:54:13;14.05;57.97
68439;SHT31;55421;51.600;5.718;2023-04-15T10:56:47;14.00;57.58
68439;SHT31;55421;51.600;5.718;2023-04-15T10:59:17;14.02;58.06
68439;SHT31;55421;51.600;5.718;2023-04-15T11:01:50;14.10;58.03
68439;SHT31;55421;51.600;5.718;2023-04-15T11:07:39;13.97;57.38
68439;SHT31;55421;51.600;5.718;2023-04-15T11:12:44;14.18;57.48
68439;SHT31;55421;51.600;5.718;2023-04-15T11:18:13;14.14;57.70
68439;SHT31;55421;51.600;5.718;2023-04-15T11:23:26;13.94;58.15
68439;SHT31;55421;51.600;5.718;2023-04-15T11:25:56;13.85;57.45
68439;SHT31;55421;51.600;5.718;2023-04-15T11:28:26;13.74;57.44
68439;SHT31;55421;51.600;5.718;2023-04-15T11:30:59;13.69;57.21
68439;SHT31;55421;51.600;5.718;2023-04-15T11:33:32;13.77;57.99
68439;SHT31;55421;51.600;5.718;2023-04-15T11:35:59;13.93;58.48
68439;SHT31;55421;51.600;5.718;2023-04-15T11:38:26;14.10;58.28
68439;SHT31;55421;51.600;5.718;2023-04-15T11:40:53;14.34;58.22
68439;SHT31;55421;51.600;5.718;2023-04-15T11:43:19;14.54;58.07
68439;SHT31;55421;51.600;5.718;2023-04-15T11:45:51;14.60;57.02
68439;SHT31;55421;51.600;5.718;2023-04-15T11:48:25;14.63;56.76
68439;SHT31;55421;51.600;5.718;2023-04-15T11:51:04;14.74;56.56
68439;SHT31;55421;51.600;5.718;2023-04-15T11:53:45;14.82;56.60
68439;SHT31;55421;51.600;5.718;2023-04-15T11:56:18;14.81;56.75
68439;SHT31;55421;51.600;5.718;2023-04-15T11:58:53;14.77;56.48
68439;SHT31;55421;51.600;5.718;2023-04-15T12:01:32;14.77;56.42
68439;SHT31;55421;51.600;5.718;2023-04-15T12:04:00;14.74;56.88
68439;SHT31;55421;51.600;5.718;2023-04-15T12:06:31;14.70;56.94
68439;SHT31;55421;51.600;5.718;2023-04-15T12:09:10;14.73;57.20
68439;SHT31;55421;51.600;5.718;2023-04-15T12:14:26;14.87;56.37
68439;SHT31;55421;51.600;5.718;2023-04-15T12:19:27;14.89;54.43
68439;SHT31;55421;51.600;5.718;2023-04-15T12:22:00;14.85;55.05
68439;SHT31;55421;51.600;5.718;2023-04-15T12:24:34;14.93;56.00
68439;SHT31;55421;51.600;5.718;2023-04-15T12:27:03;15.05;55.46
68439;SHT31;55421;51.600;5.718;2023-04-15T12:29:35;15.14;55.08
68439;SHT31;55421;51.600;5.718;2023-04-15T12:32:05;15.17;55.04
68439;SHT31;55421;51.600;5.718;2023-04-15T12:37:09;15.19;53.79
68439;SHT31;55421;51.600;5.718;2023-04-15T12:39:42;15.09;53.61
68439;SHT31;55421;51.600;5.718;2023-04-15T12:42:13;14.98;53.79
68439;SHT31;55421;51.600;5.718;2023-04-15T12:44:41;14.89;53.99
68439;SHT31;55421;51.600;5.718;2023-04-15T12:47:08;14.85;53.73
68439;SHT31;55421;51.600;5.718;2023-04-15T12:49:36;14.81;54.54
68439;SHT31;55421;51.600;5.718;2023-04-15T12:52:04;14.80;54.96
68439;SHT31;55421;51.600;5.718;2023-04-15T12:54:31;14.82;55.07
68439;SHT31;55421;51.600;5.718;2023-04-15T12:56:58;14.92;54.12
68439;SHT31;55421;51.600;5.718;2023-04-15T12:59:26;14.97;53.46
68439;SHT31;55421;51.600;5.718;2023-04-15T13:01:52;14.93;53.17
68439;SHT31;55421;51.600;5.718;2023-04-15T13:04:19;14.93;53.80
68439;SHT31;55421;51.600;5.718;2023-04-15T13:06:47;14.96;53.01
68439;SHT31;55421;51.600;5.718;2023-04-15T13:09:13;14.97;52.55
68439;SHT31;55421;51.600;5.718;2023-04-15T13:11:40;15.00;53.37
68439;SHT31;55421;51.600;5.718;2023-04-15T13:14:07;15.02;54.02
68439;SHT31;55421;51.600;5.718;2023-04-15T13:16:36;15.09;54.20
68439;SHT31;55421;51.600;5.718;2023-04-15T13:19:02;15.10;54.16
68439;SHT31;55421;51.600;5.718;2023-04-15T13:21:29;15.08;53.97
68439;SHT31;55421;51.600;5.718;2023-04-15T13:24:00;15.19;54.17
68439;SHT31;55421;51.600;5.718;2023-04-15T13:26:27;15.32;54.29
68439;SHT31;55421;51.600;5.718;2023-04-15T13:28:54;15.31;53.68
68439;SHT31;55421;51.600;5.718;2023-04-15T13:31:20;15.20;53.78
68439;SHT31;55421;51.600;5.718;2023-04-15T13:33:47;15.12;53.89
68439;SHT31;55421;51.600;5.718;2023-04-15T13:36:13;15.01;54.05
68439;SHT31;55421;51.600;5.718;2023-04-15T13:38:40;15.06;54.59
68439;SHT31;55421;51.600;5.718;2023-04-15T13:41:06;15.13;54.71
68439;SHT31;55421;51.600;5.718;2023-04-15T13:43:32;15.18;54.70
68439;SHT31;55421;51.600;5.718;2023-04-15T13:45:59;15.16;54.62
68439;SHT31;55421;51.600;5.718;2023-04-15T13:48:27;15.20;54.83
68439;SHT31;55421;51.600;5.718;2023-04-15T13:50:53;15.15;54.87
68439;SHT31;55421;51.600;5.718;2023-04-15T13:53:20;15.14;55.02
68439;SHT31;55421;51.600;5.718;2023-04-15T13:55:46;15.13;54.60
68439;SHT31;55421;51.600;5.718;2023-04-15T13:58:13;15.19;54.40
68439;SHT31;55421;51.600;5.718;2023-04-15T14:00:39;15.15;53.71
68439;SHT31;55421;51.600;5.718;2023-04-15T14:03:06;15.13;54.37
68439;SHT31;55421;51.600;5.718;2023-04-15T14:05:33;15.08;54.27
68439;SHT31;55421;51.600;5.718;2023-04-15T14:07:59;14.92;53.94
68439;SHT31;55421;51.600;5.718;2023-04-15T14:10:26;14.81;54.90
68439;SHT31;55421;51.600;5.718;2023-04-15T14:12:52;14.82;55.59
68439;SHT31;55421;51.600;5.718;2023-04-15T14:15:19;14.75;54.78
68439;SHT31;55421;51.600;5.718;2023-04-15T14:17:46;14.67;54.65
68439;SHT31;55421;51.600;5.718;2023-04-15T14:20:13;14.56;54.75
68439;SHT31;55421;51.600;5.718;2023-04-15T14:22:39;14.51;55.16
68439;SHT31;55421;51.600;5.718;2023-04-15T14:25:06;14.52;55.34
68439;SHT31;55421;51.600;5.718;2023-04-15T14:27:33;14.55;55.58
68439;SHT31;55421;51.600;5.718;2023-04-15T14:30:01;14.55;55.57
68439;SHT31;55421;51.600;5.718;2023-04-15T14:32:27;14.50;55.16
68439;SHT31;55421;51.600;5.718;2023-04-15T14:34:54;14.47;55.46
68439;SHT31;55421;51.600;5.718;2023-04-15T14:37:21;14.58;55.79
68439;SHT31;55421;51.600;5.718;2023-04-15T14:39:47;14.72;55.77
68439;SHT31;55421;51.600;5.718;2023-04-15T14:42:14;14.85;55.34
68439;SHT31;55421;51.600;5.718;2023-04-15T14:44:40;14.82;55.40
68439;SHT31;55421;51.600;5.718;2023-04-15T14:47:07;14.74;55.71
68439;SHT31;55421;51.600;5.718;2023-04-15T14:49:33;14.68;55.44
68439;SHT31;55421;51.600;5.718;2023-04-15T14:52:00;14.60;55.40
68439;SHT31;55421;51.600;5.718;2023-04-15T14:54:26;14.60;55.17
68439;SHT31;55421;51.600;5.718;2023-04-15T14:56:53;14.61;55.04
68439;SHT31;55421;51.600;5.718;2023-04-15T14:59:19;14.51;55.24
68439;SHT31;55421;51.600;5.718;2023-04-15T15:01:46;14.33;55.33
68439;SHT31;55421;51.600;5.718;2023-04-15T15:04:13;14.17;55.91
68439;SHT31;55421;51.600;5.718;2023-04-15T15:06:40;14.05;56.48
68439;SHT31;55421;51.600;5.718;2023-04-15T15:09:07;13.95;56.78
68439;SHT31;55421;51.600;5.718;2023-04-15T15:11:33;13.85;57.16
68439;SHT31;55421;51.600;5.718;2023-04-15T15:14:00;13.71;57.85
68439;SHT31;55421;51.600;5.718;2023-04-15T15:16:26;13.58;58.43
68439;SHT31;55421;51.600;5.718;2023-04-15T15:18:54;13.47;58.81
68439;SHT31;55421;51.600;5.718;2023-04-15T15:21:28;13.43;59.28
68439;SHT31;55421;51.600;5.718;2023-04-15T15:23:54;13.43;59.06
68439;SHT31;55421;51.600;5.718;2023-04-15T15:26:21;13.37;59.59
68439;SHT31;55421;51.600;5.718;2023-04-15T15:28:48;13.28;60.20
68439;SHT31;55421;51.600;5.718;2023-04-15T15:31:15;13.18;60.34
68439;SHT31;55421;51.600;5.718;2023-04-15T15:33:42;13.09;60.54
68439;SHT31;55421;51.600;5.718;2023-04-15T15:36:08;12.99;60.69
68439;SHT31;55421;51.600;5.718;2023-04-15T15:38:36;12.94;60.78
68439;SHT31;55421;51.600;5.718;2023-04-15T15:41:03;12.94;61.00
68439;SHT31;55421;51.600;5.718;2023-04-15T15:43:30;12.91;60.99
68439;SHT31;55421;51.600;5.718;2023-04-15T15:45:56;12.83;61.26
68439;SHT31;55421;51.600;5.718;2023-04-15T15:48:23;12.73;61.51
68439;SHT31;55421;51.600;5.718;2023-04-15T15:50:50;12.65;61.57
68439;SHT31;55421;51.600;5.718;2023-04-15T15:53:17;12.60;61.71
68439;SHT31;55421;51.600;5.718;2023-04-15T15:55:51;12.60;62.07
68439;SHT31;55421;51.600;5.718;2023-04-15T15:58:18;12.56;62.06
68439;SHT31;55421;51.600;5.718;2023-04-15T16:00:45;12.54;62.30
68439;SHT31;55421;51.600;5.718;2023-04-15T16:03:12;12.51;62.26